createdAt,value
2024-02-26T00:00:24.134Z,97470.69
2024-02-26T00:01:26.945Z,97459.66
2024-02-26T00:02:29.593Z,97467.97
2024-02-26T00:03:33.724Z,97463.16
2024-02-26T00:04:36.481Z,97465.28
2024-02-26T00:05:40.204Z,97455.44
2024-02-26T00:06:42.940Z,97457.22
2024-02-26T00:07:46.314Z,97458.28
2024-02-26T00:08:48.905Z,97458.97
2024-02-26T00:09:51.590Z,97459.19
2024-02-26T00:10:54.679Z,97458.63
2024-02-26T00:11:57.436Z,97457.50
2024-02-26T00:13:00.052Z,97454.06
2024-02-26T00:14:02.615Z,97457.47
2024-02-26T00:15:06.380Z,97454.38
2024-02-26T00:16:09.098Z,97458.91
2024-02-26T00:17:11.684Z,97451.50
2024-02-26T00:18:14.286Z,97455.81
2024-02-26T00:19:17.109Z,97454.59
2024-02-26T00:20:19.860Z,97453.66
2024-02-26T00:21:22.793Z,97457.75
2024-02-26T00:22:25.355Z,97451.50
2024-02-26T00:23:28.720Z,97451.81
2024-02-26T00:24:31.327Z,97447.53
2024-02-26T00:25:33.868Z,97444.75
2024-02-26T00:26:36.591Z,97444.75
2024-02-26T00:27:41.417Z,97444.75
2024-02-26T00:28:44.768Z,97443.44
2024-02-26T00:29:47.485Z,97438.13
2024-02-26T00:30:50.079Z,97436.59
2024-02-26T00:31:52.947Z,97440.13
2024-02-26T00:32:55.635Z,97438.13
2024-02-26T00:33:58.642Z,97435.03
2024-02-26T00:35:01.395Z,97440.88
2024-02-26T00:36:04.649Z,97438.13
2024-02-26T00:37:07.276Z,97429.50
2024-02-26T00:38:09.873Z,97431.84
2024-02-26T00:39:13.432Z,97428.53
2024-02-26T00:40:16.338Z,97429.50
2024-02-26T00:41:20.374Z,97436.38
2024-02-26T00:42:22.987Z,97439.47
2024-02-26T00:43:25.682Z,97431.84
2024-02-26T00:44:28.269Z,97427.53
2024-02-26T00:45:30.953Z,97432.59
2024-02-26T00:46:33.743Z,97434.16
2024-02-26T00:47:36.297Z,97429.50
2024-02-26T00:48:39.201Z,97431.50
2024-02-26T00:49:42.094Z,97428.63
2024-02-26T00:50:45.080Z,97425.94
2024-02-26T00:51:47.745Z,97424.63
2024-02-26T00:52:50.369Z,97427.16
2024-02-26T00:53:53.005Z,97428.47
2024-02-26T00:54:55.614Z,97424.16
2024-02-26T00:56:00.226Z,97428.47
2024-02-26T00:57:02.768Z,97421.63
2024-02-26T00:58:05.539Z,97420.84
2024-02-26T00:59:08.218Z,97422.63
2024-02-26T01:00:11.622Z,97410.91
2024-02-26T01:01:14.675Z,97415.44
2024-02-26T01:02:17.372Z,97423.47
2024-02-26T01:03:20.589Z,97414.09
2024-02-26T01:04:23.342Z,97415.44
2024-02-26T01:05:25.953Z,97415.00
2024-02-26T01:06:28.653Z,97423.41
2024-02-26T01:07:36.924Z,97416.00
2024-02-26T01:08:40.467Z,97415.00
2024-02-26T01:09:44.031Z,97415.56
2024-02-26T01:10:46.847Z,97414.56
2024-02-26T01:11:49.449Z,97411.03
2024-02-26T01:12:52.124Z,97410.41
2024-02-26T01:13:57.812Z,97412.72
2024-02-26T01:15:00.779Z,97410.31
2024-02-26T01:16:04.177Z,97402.03
2024-02-26T01:17:06.785Z,97406.25
2024-02-26T01:18:09.521Z,97399.63
2024-02-26T01:19:12.429Z,97404.28
2024-02-26T01:20:15.122Z,97399.75
2024-02-26T01:21:17.935Z,97403.97
2024-02-26T01:22:21.050Z,97392.34
2024-02-26T01:23:23.878Z,97400.88
2024-02-26T01:24:26.472Z,97400.13
2024-02-26T01:25:29.007Z,97397.88
2024-02-26T01:26:32.190Z,97391.13
2024-02-26T01:27:34.681Z,97391.78
2024-02-26T01:28:37.220Z,97398.16
2024-02-26T01:29:39.737Z,97388.53
2024-02-26T01:30:42.373Z,97393.69
2024-02-26T01:31:45.046Z,97389.91
2024-02-26T01:32:47.740Z,97395.41
2024-02-26T01:33:50.778Z,97394.69
2024-02-26T01:34:53.618Z,97395.31
2024-02-26T01:35:56.291Z,97392.88
2024-02-26T01:36:59.259Z,97387.78
2024-02-26T01:38:01.759Z,97389.13
2024-02-26T01:39:04.874Z,97390.88
2024-02-26T01:40:08.530Z,97387.03
2024-02-26T01:41:11.179Z,97390.88
2024-02-26T01:42:13.854Z,97383.50
2024-02-26T01:43:16.506Z,97381.94
2024-02-26T01:44:19.038Z,97379.63
2024-02-26T01:45:26.114Z,97380.16
2024-02-26T01:46:31.512Z,97381.16
2024-02-26T01:47:34.644Z,97380.59
2024-02-26T01:48:37.867Z,97387.66
2024-02-26T01:49:41.857Z,97389.06
2024-02-26T01:50:44.551Z,97393.16
2024-02-26T01:51:47.607Z,97391.09
2024-02-26T01:52:52.656Z,97387.28
2024-02-26T01:53:55.597Z,97395.97
2024-02-26T01:54:58.188Z,97394.47
2024-02-26T01:56:00.851Z,97391.41
2024-02-26T01:57:05.857Z,97388.56
2024-02-26T01:58:08.723Z,97393.88
2024-02-26T01:59:11.721Z,97388.41
2024-02-26T02:00:15.929Z,97385.75
2024-02-26T02:01:23.848Z,97394.25
2024-02-26T02:02:27.636Z,97390.81
2024-02-26T02:03:32.500Z,97383.72
2024-02-26T02:04:37.332Z,97391.09
2024-02-26T02:05:44.072Z,97388.84
2024-02-26T02:06:48.015Z,97387.19
2024-02-26T02:07:52.505Z,97382.88
2024-02-26T02:08:58.112Z,97387.59
2024-02-26T02:10:01.488Z,97379.75
2024-02-26T02:11:04.725Z,97384.22
2024-02-26T02:12:07.872Z,97376.59
2024-02-26T02:13:10.507Z,97378.00
2024-02-26T02:14:13.115Z,97378.00
2024-02-26T02:15:15.955Z,97371.50
2024-02-26T02:16:18.535Z,97377.47
2024-02-26T02:17:21.706Z,97374.53
2024-02-26T02:18:24.519Z,97374.41
2024-02-26T02:19:27.189Z,97367.06
2024-02-26T02:20:36.931Z,97371.59
2024-02-26T02:21:39.617Z,97371.47
2024-02-26T02:22:42.174Z,97367.53
2024-02-26T02:23:47.812Z,97365.53
2024-02-26T02:24:53.957Z,97368.72
2024-02-26T02:25:59.003Z,97370.75
2024-02-26T02:27:01.714Z,97384.09
2024-02-26T02:28:05.181Z,97372.28
2024-02-26T02:29:08.603Z,97379.25
2024-02-26T02:30:12.910Z,97377.47
2024-02-26T02:31:17.254Z,97379.06
2024-02-26T02:32:21.418Z,97372.59
2024-02-26T02:33:25.329Z,97371.63
2024-02-26T02:34:28.932Z,97367.09
2024-02-26T02:35:31.663Z,97385.47
2024-02-26T02:36:34.268Z,97369.41
2024-02-26T02:37:38.259Z,97383.47
2024-02-26T02:38:51.839Z,97387.00
2024-02-26T02:39:56.227Z,97384.00
2024-02-26T02:40:59.016Z,97386.56
2024-02-26T02:42:01.796Z,97390.09
2024-02-26T02:43:05.689Z,97390.78
2024-02-26T02:44:08.309Z,97401.28
2024-02-26T02:45:11.579Z,97396.06
2024-02-26T02:46:14.196Z,97386.22
2024-02-26T02:47:16.920Z,97390.88
2024-02-26T02:48:19.688Z,97392.53
2024-02-26T02:49:25.083Z,97388.53
2024-02-26T02:50:30.113Z,97400.81
2024-02-26T02:51:32.685Z,97396.09
2024-02-26T02:52:35.385Z,97404.03
2024-02-26T02:53:38.088Z,97402.50
2024-02-26T02:54:42.929Z,97393.22
2024-02-26T02:55:45.661Z,97398.41
2024-02-26T02:56:48.268Z,97396.06
2024-02-26T02:57:50.897Z,97397.53
2024-02-26T02:58:53.671Z,97406.91
2024-02-26T02:59:56.250Z,97398.81
2024-02-26T03:01:01.436Z,97409.13
2024-02-26T03:02:04.508Z,97403.81
2024-02-26T03:03:07.537Z,97402.56
2024-02-26T03:04:10.239Z,97406.75
2024-02-26T03:05:12.962Z,97399.56
2024-02-26T03:06:15.709Z,97395.03
2024-02-26T03:07:18.684Z,97396.25
2024-02-26T03:08:21.326Z,97396.19
2024-02-26T03:09:24.709Z,97399.81
2024-02-26T03:10:27.404Z,97387.22
2024-02-26T03:11:30.174Z,97380.69
2024-02-26T03:12:34.648Z,97383.00
2024-02-26T03:13:37.471Z,97376.94
2024-02-26T03:14:40.194Z,97374.06
2024-02-26T03:15:43.268Z,97380.38
2024-02-26T03:16:45.931Z,97380.16
2024-02-26T03:17:48.779Z,97388.09
2024-02-26T03:18:51.513Z,97379.56
2024-02-26T03:19:55.414Z,97382.78
2024-02-26T03:20:58.231Z,97373.47
2024-02-26T03:22:00.801Z,97378.09
2024-02-26T03:23:03.666Z,97374.16
2024-02-26T03:24:07.103Z,97370.94
2024-02-26T03:25:09.785Z,97370.75
2024-02-26T03:26:15.767Z,97372.84
2024-02-26T03:27:18.733Z,97365.31
2024-02-26T03:28:21.374Z,97365.66
2024-02-26T03:29:24.250Z,97363.66
2024-02-26T03:30:26.964Z,97355.69
2024-02-26T03:31:29.628Z,97366.19
2024-02-26T03:32:32.271Z,97371.19
2024-02-26T03:33:35.941Z,97366.41
2024-02-26T03:34:40.736Z,97370.09
2024-02-26T03:35:43.423Z,97373.94
2024-02-26T03:36:45.977Z,97375.84
2024-02-26T03:37:48.962Z,97367.97
2024-02-26T03:38:51.548Z,97368.53
2024-02-26T03:39:54.196Z,97361.97
2024-02-26T03:40:56.893Z,97368.41
2024-02-26T03:41:59.561Z,97363.88
2024-02-26T03:43:02.180Z,97360.09
2024-02-26T03:44:04.983Z,97359.44
2024-02-26T03:45:08.356Z,97359.22
2024-02-26T03:46:14.963Z,97361.06
2024-02-26T03:47:17.878Z,97360.84
2024-02-26T03:48:20.621Z,97353.00
2024-02-26T03:49:23.495Z,97354.00
2024-02-26T03:50:26.494Z,97360.63
2024-02-26T03:51:32.527Z,97365.28
2024-02-26T03:52:35.364Z,97358.75
2024-02-26T03:53:38.209Z,97359.75
2024-02-26T03:54:40.825Z,97357.22
2024-02-26T03:55:43.693Z,97364.41
2024-02-26T03:56:46.271Z,97372.59
2024-02-26T03:57:48.961Z,97368.19
2024-02-26T03:58:51.733Z,97369.97
2024-02-26T03:59:54.912Z,97358.78
2024-02-26T04:00:57.523Z,97374.50
2024-02-26T04:02:00.149Z,97367.97
2024-02-26T04:03:03.182Z,97368.97
2024-02-26T04:04:05.871Z,97370.19
2024-02-26T04:05:14.785Z,97368.63
2024-02-26T04:06:20.783Z,97373.19
2024-02-26T04:07:23.500Z,97372.94
2024-02-26T04:08:26.034Z,97373.72
2024-02-26T04:09:28.592Z,97371.97
2024-02-26T04:10:31.269Z,97371.53
2024-02-26T04:11:34.493Z,97376.69
2024-02-26T04:12:37.046Z,97370.28
2024-02-26T04:13:39.662Z,97376.38
2024-02-26T04:14:42.309Z,97372.19
2024-02-26T04:15:45.146Z,97371.19
2024-02-26T04:16:48.842Z,97372.50
2024-02-26T04:17:51.529Z,97368.19
2024-02-26T04:18:54.802Z,97368.97
2024-02-26T04:19:57.565Z,97369.75
2024-02-26T04:21:00.391Z,97360.56
2024-02-26T04:22:03.373Z,97359.25
2024-02-26T04:23:06.224Z,97359.47
2024-02-26T04:24:08.981Z,97360.03
2024-02-26T04:25:11.874Z,97359.66
2024-02-26T04:26:14.532Z,97352.16
2024-02-26T04:27:17.240Z,97355.59
2024-02-26T04:28:21.964Z,97356.03
2024-02-26T04:29:24.507Z,97355.03
2024-02-26T04:30:27.387Z,97362.66
2024-02-26T04:31:31.606Z,97362.13
2024-02-26T04:32:35.486Z,97361.88
2024-02-26T04:33:38.378Z,97355.03
2024-02-26T04:34:41.274Z,97355.81
2024-02-26T04:35:43.955Z,97357.56
2024-02-26T04:36:46.644Z,97362.31
2024-02-26T04:37:49.196Z,97365.06
2024-02-26T04:38:51.966Z,97359.22
2024-02-26T04:39:54.636Z,97364.53
2024-02-26T04:40:57.318Z,97368.94
2024-02-26T04:42:00.008Z,97373.22
2024-02-26T04:43:02.681Z,97369.22
2024-02-26T04:44:05.309Z,97366.00
2024-02-26T04:45:09.687Z,97363.59
2024-02-26T04:46:12.520Z,97367.53
2024-02-26T04:47:15.211Z,97375.28
2024-02-26T04:48:17.889Z,97374.94
2024-02-26T04:49:20.656Z,97371.53
2024-02-26T04:50:23.289Z,97370.75
2024-02-26T04:51:26.344Z,97368.44
2024-02-26T04:52:29.166Z,97368.44
2024-02-26T04:53:32.388Z,97369.13
2024-02-26T04:54:35.326Z,97360.63
2024-02-26T04:55:37.897Z,97366.59
2024-02-26T04:56:40.514Z,97363.84
2024-02-26T04:57:43.670Z,97367.69
2024-02-26T04:58:46.329Z,97362.19
2024-02-26T04:59:48.970Z,97353.56
2024-02-26T05:00:51.663Z,97364.16
2024-02-26T05:01:54.396Z,97356.66
2024-02-26T05:02:57.102Z,97355.44
2024-02-26T05:03:59.892Z,97355.34
2024-02-26T05:05:03.345Z,97359.88
2024-02-26T05:06:06.937Z,97350.81
2024-02-26T05:07:09.691Z,97361.22
2024-02-26T05:08:12.669Z,97355.03
2024-02-26T05:09:15.271Z,97359.44
2024-02-26T05:10:18.141Z,97359.66
2024-02-26T05:11:20.675Z,97373.38
2024-02-26T05:12:23.474Z,97375.22
2024-02-26T05:13:26.124Z,97377.75
2024-02-26T05:14:28.682Z,97375.06
2024-02-26T05:15:31.302Z,97366.13
2024-02-26T05:16:33.959Z,97371.28
2024-02-26T05:17:36.654Z,97377.28
2024-02-26T05:18:39.584Z,97376.44
2024-02-26T05:19:42.281Z,97368.78
2024-02-26T05:20:44.954Z,97374.53
2024-02-26T05:21:50.258Z,97375.22
2024-02-26T05:22:53.102Z,97374.34
2024-02-26T05:23:55.805Z,97369.72
2024-02-26T05:24:58.314Z,97375.25
2024-02-26T05:26:00.905Z,97373.28
2024-02-26T05:27:03.674Z,97369.94
2024-02-26T05:28:06.548Z,97375.94
2024-02-26T05:29:09.197Z,97377.94
2024-02-26T05:30:12.810Z,97377.94
2024-02-26T05:31:16.348Z,97390.09
2024-02-26T05:32:18.911Z,97385.31
2024-02-26T05:33:21.485Z,97378.47
2024-02-26T05:34:24.489Z,97376.38
2024-02-26T05:35:27.363Z,97382.38
2024-02-26T05:36:34.321Z,97394.09
2024-02-26T05:37:37.084Z,97380.69
2024-02-26T05:38:39.635Z,97381.47
2024-02-26T05:39:42.444Z,97382.00
2024-02-26T05:40:47.016Z,97380.47
2024-02-26T05:41:50.986Z,97382.00
2024-02-26T05:42:53.582Z,97376.50
2024-02-26T05:43:56.783Z,97385.22
2024-02-26T05:44:59.453Z,97387.91
2024-02-26T05:46:02.062Z,97383.22
2024-02-26T05:47:07.471Z,97383.03
2024-02-26T05:48:10.383Z,97387.56
2024-02-26T05:49:13.083Z,97383.22
2024-02-26T05:50:16.702Z,97386.75
2024-02-26T05:51:19.709Z,97389.66
2024-02-26T05:52:24.249Z,97377.16
2024-02-26T05:53:28.645Z,97386.41
2024-02-26T05:54:31.242Z,97384.06
2024-02-26T05:55:34.043Z,97392.47
2024-02-26T05:56:36.893Z,97388.56
2024-02-26T05:57:39.534Z,97385.88
2024-02-26T05:58:42.172Z,97384.97
2024-02-26T05:59:44.835Z,97389.94
2024-02-26T06:00:47.688Z,97383.13
2024-02-26T06:01:50.548Z,97389.13
2024-02-26T06:02:53.291Z,97387.66
2024-02-26T06:03:55.883Z,97390.28
2024-02-26T06:04:59.034Z,97393.72
2024-02-26T06:06:01.784Z,97393.56
2024-02-26T06:07:04.786Z,97396.75
2024-02-26T06:08:08.071Z,97391.50
2024-02-26T06:09:11.654Z,97395.66
2024-02-26T06:10:15.068Z,97390.88
2024-02-26T06:11:17.805Z,97391.19
2024-02-26T06:12:20.408Z,97399.63
2024-02-26T06:13:23.028Z,97400.16
2024-02-26T06:14:25.886Z,97394.91
2024-02-26T06:15:28.669Z,97395.78
2024-02-26T06:16:32.285Z,97397.97
2024-02-26T06:17:35.152Z,97406.69
2024-02-26T06:18:39.211Z,97398.56
2024-02-26T06:19:41.961Z,97402.13
2024-02-26T06:20:44.685Z,97403.38
2024-02-26T06:21:47.211Z,97400.53
2024-02-26T06:22:49.942Z,97404.06
2024-02-26T06:23:52.540Z,97415.25
2024-02-26T06:24:55.161Z,97399.75
2024-02-26T06:25:57.680Z,97408.19
2024-02-26T06:27:01.037Z,97404.63
2024-02-26T06:28:03.750Z,97409.47
2024-02-26T06:29:06.342Z,97403.13
2024-02-26T06:30:12.032Z,97409.78
2024-02-26T06:31:14.486Z,97411.56
2024-02-26T06:32:18.425Z,97414.97
2024-02-26T06:33:21.289Z,97410.16
2024-02-26T06:34:24.328Z,97410.69
2024-02-26T06:35:28.462Z,97402.13
2024-02-26T06:36:33.211Z,97410.31
2024-02-26T06:37:37.242Z,97402.03
2024-02-26T06:38:39.831Z,97403.66
2024-02-26T06:39:43.060Z,97406.28
2024-02-26T06:40:47.162Z,97403.00
2024-02-26T06:41:49.815Z,97400.84
2024-02-26T06:42:52.721Z,97403.44
2024-02-26T06:43:55.884Z,97406.84
2024-02-26T06:44:59.226Z,97400.03
2024-02-26T06:46:02.102Z,97394.50
2024-02-26T06:47:05.062Z,97398.13
2024-02-26T06:48:08.450Z,97397.94
2024-02-26T06:49:11.265Z,97392.63
2024-02-26T06:50:16.630Z,97399.88
2024-02-26T06:51:19.247Z,97389.28
2024-02-26T06:52:22.056Z,97390.56
2024-02-26T06:53:24.637Z,97394.84
2024-02-26T06:54:27.279Z,97398.66
2024-02-26T06:55:31.272Z,97398.94
2024-02-26T06:56:33.963Z,97396.53
2024-02-26T06:57:36.728Z,97408.13
2024-02-26T06:58:39.337Z,97401.56
2024-02-26T06:59:41.959Z,97402.16
2024-02-26T07:00:44.703Z,97405.94
2024-02-26T07:01:47.327Z,97404.50
2024-02-26T07:02:49.926Z,97398.91
2024-02-26T07:03:52.593Z,97400.63
2024-02-26T07:04:57.267Z,97403.34
2024-02-26T07:05:59.856Z,97403.28
2024-02-26T07:07:02.665Z,97403.53
2024-02-26T07:08:05.838Z,97403.00
2024-02-26T07:09:08.629Z,97402.16
2024-02-26T07:10:13.379Z,97404.97
2024-02-26T07:11:16.043Z,97399.31
2024-02-26T07:12:18.901Z,97408.69
2024-02-26T07:13:22.152Z,97410.22
2024-02-26T07:14:25.860Z,97407.91
2024-02-26T07:15:29.184Z,97411.00
2024-02-26T07:16:31.735Z,97416.44
2024-02-26T07:17:35.376Z,97412.38
2024-02-26T07:18:38.565Z,97409.06
2024-02-26T07:19:41.425Z,97408.81
2024-02-26T07:20:44.275Z,97413.72
2024-02-26T07:21:46.888Z,97407.03
2024-02-26T07:22:49.402Z,97417.09
2024-02-26T07:23:52.612Z,97417.44
2024-02-26T07:24:55.228Z,97409.81
2024-02-26T07:25:57.881Z,97408.56
2024-02-26T07:27:00.476Z,97406.81
2024-02-26T07:28:03.144Z,97408.16
2024-02-26T07:29:06.586Z,97406.69
2024-02-26T07:30:10.675Z,97410.38
2024-02-26T07:31:13.865Z,97406.66
2024-02-26T07:32:16.950Z,97402.91
2024-02-26T07:33:19.801Z,97401.44
2024-02-26T07:34:28.691Z,97409.38
2024-02-26T07:35:31.355Z,97396.91
2024-02-26T07:36:34.115Z,97407.19
2024-02-26T07:37:36.781Z,97393.97
2024-02-26T07:38:43.283Z,97393.72
2024-02-26T07:39:46.837Z,97390.44
2024-02-26T07:40:56.114Z,97389.75
2024-02-26T07:42:05.699Z,97390.06
2024-02-26T07:43:08.388Z,97382.94
2024-02-26T07:44:11.018Z,97387.03
2024-02-26T07:45:16.626Z,97389.66
2024-02-26T07:46:19.202Z,97389.19
2024-02-26T07:47:22.325Z,97384.13
2024-02-26T07:48:25.568Z,97380.25
2024-02-26T07:49:28.384Z,97388.81
2024-02-26T07:50:30.980Z,97388.81
2024-02-26T07:51:33.697Z,97388.78
2024-02-26T07:52:36.382Z,97382.31
2024-02-26T07:53:38.929Z,97390.50
2024-02-26T07:54:41.675Z,97389.19
2024-02-26T07:55:44.222Z,97384.03
2024-02-26T07:56:46.948Z,97395.31
2024-02-26T07:57:49.655Z,97392.75
2024-02-26T07:58:52.320Z,97395.34
2024-02-26T07:59:55.289Z,97390.47
2024-02-26T08:00:58.054Z,97382.03
2024-02-26T08:02:01.782Z,97393.34
2024-02-26T08:03:04.780Z,97389.25
2024-02-26T08:04:07.584Z,97387.19
2024-02-26T08:05:10.211Z,97389.81
2024-02-26T08:06:12.934Z,97392.94
2024-02-26T08:07:16.969Z,97380.38
2024-02-26T08:08:20.351Z,97386.53
2024-02-26T08:09:23.174Z,97381.88
2024-02-26T08:10:25.841Z,97382.41
2024-02-26T08:11:29.357Z,97379.06
2024-02-26T08:12:32.255Z,97387.78
2024-02-26T08:13:34.813Z,97380.56
2024-02-26T08:14:37.336Z,97381.09
2024-02-26T08:15:39.950Z,97381.34
2024-02-26T08:16:42.500Z,97385.19
2024-02-26T08:17:45.737Z,97378.00
2024-02-26T08:18:48.553Z,97380.44
2024-02-26T08:19:51.496Z,97374.69
2024-02-26T08:20:54.274Z,97374.28
2024-02-26T08:21:56.986Z,97375.75
2024-02-26T08:22:59.672Z,97379.84
2024-02-26T08:24:02.367Z,97377.66
2024-02-26T08:25:07.903Z,97370.72
2024-02-26T08:26:12.437Z,97377.91
2024-02-26T08:27:15.069Z,97364.81
2024-02-26T08:28:19.227Z,97368.53
2024-02-26T08:29:21.962Z,97365.91
2024-02-26T08:30:24.597Z,97358.88
2024-02-26T08:31:28.352Z,97368.47
2024-02-26T08:32:30.962Z,97362.69
2024-02-26T08:33:35.265Z,97372.81
2024-02-26T08:34:38.329Z,97357.88
2024-02-26T08:35:40.930Z,97364.03
2024-02-26T08:36:45.602Z,97361.88
2024-02-26T08:37:49.562Z,97355.66
2024-02-26T08:38:52.302Z,97350.13
2024-02-26T08:39:55.019Z,97351.56
2024-02-26T08:40:57.663Z,97349.94
2024-02-26T08:42:00.331Z,97349.94
2024-02-26T08:43:03.196Z,97351.28
2024-02-26T08:44:05.798Z,97352.03
2024-02-26T08:45:09.951Z,97349.06
2024-02-26T08:46:14.319Z,97350.66
2024-02-26T08:47:17.325Z,97351.19
2024-02-26T08:48:20.001Z,97342.41
2024-02-26T08:49:25.050Z,97350.66
2024-02-26T08:50:27.960Z,97345.88
2024-02-26T08:51:30.729Z,97349.59
2024-02-26T08:52:34.413Z,97351.59
2024-02-26T08:53:42.527Z,97339.09
2024-02-26T08:54:46.610Z,97333.97
2024-02-26T08:55:49.176Z,97334.19
2024-02-26T08:56:51.878Z,97333.06
2024-02-26T08:57:54.478Z,97336.16
2024-02-26T08:58:58.554Z,97329.75
2024-02-26T09:00:02.303Z,97330.41
2024-02-26T09:01:05.063Z,97329.34
2024-02-26T09:02:09.649Z,97318.56
2024-02-26T09:03:12.426Z,97317.09
2024-02-26T09:04:14.995Z,97323.94
2024-02-26T09:05:17.578Z,97314.78
2024-02-26T09:06:20.305Z,97314.50
2024-02-26T09:07:23.670Z,97311.56
2024-02-26T09:08:26.224Z,97308.53
2024-02-26T09:09:29.195Z,97308.25
2024-02-26T09:10:31.782Z,97310.84
2024-02-26T09:11:34.439Z,97306.09
2024-02-26T09:12:38.446Z,97309.63
2024-02-26T09:13:41.060Z,97307.66
2024-02-26T09:14:44.679Z,97304.47
2024-02-26T09:15:47.369Z,97307.63
2024-02-26T09:16:49.888Z,97307.31
2024-02-26T09:17:53.469Z,97304.38
2024-02-26T09:18:56.496Z,97300.47
2024-02-26T09:19:59.242Z,97289.75
2024-02-26T09:21:07.336Z,97303.69
2024-02-26T09:22:10.031Z,97298.28
2024-02-26T09:23:12.880Z,97300.13
2024-02-26T09:24:16.064Z,97295.72
2024-02-26T09:25:19.214Z,97291.94
2024-02-26T09:26:21.941Z,97303.19
2024-02-26T09:27:24.903Z,97292.06
2024-02-26T09:28:27.609Z,97302.59
2024-02-26T09:29:30.273Z,97294.38
2024-02-26T09:30:32.897Z,97301.72
2024-02-26T09:31:35.528Z,97299.53
2024-02-26T09:32:38.935Z,97293.53
2024-02-26T09:33:41.914Z,97289.25
2024-02-26T09:34:44.885Z,97294.03
2024-02-26T09:35:47.672Z,97294.00
2024-02-26T09:36:50.305Z,97293.25
2024-02-26T09:37:53.266Z,97295.44
2024-02-26T09:39:00.799Z,97293.13
2024-02-26T09:40:07.350Z,97295.28
2024-02-26T09:41:17.296Z,97291.00
2024-02-26T09:42:21.056Z,97297.06
2024-02-26T09:43:26.925Z,97293.59
2024-02-26T09:44:31.727Z,97293.59
2024-02-26T09:45:35.726Z,97277.69
2024-02-26T09:46:39.158Z,97279.25
2024-02-26T09:47:43.647Z,97287.00
2024-02-26T09:48:48.651Z,97286.97
2024-02-26T09:49:54.344Z,97278.84
2024-02-26T09:50:57.239Z,97281.78
2024-02-26T09:52:03.550Z,97288.06
2024-02-26T09:53:11.237Z,97269.53
2024-02-26T09:54:16.606Z,97277.34
2024-02-26T09:55:20.244Z,97281.34
2024-02-26T09:56:23.153Z,97280.13
2024-02-26T09:57:27.345Z,97280.41
2024-02-26T09:58:31.540Z,97274.00
2024-02-26T09:59:41.751Z,97271.22
2024-02-26T10:00:49.994Z,97268.91
2024-02-26T10:01:54.530Z,97269.81
2024-02-26T10:03:01.773Z,97277.56
2024-02-26T10:04:05.929Z,97261.38
2024-02-26T10:05:15.779Z,97271.38
2024-02-26T10:14:25.942Z,97254.19
2024-02-26T10:15:29.051Z,97255.69
2024-02-26T10:16:33.000Z,97256.63
2024-02-26T10:17:37.956Z,97260.75
2024-02-26T10:18:58.971Z,97256.63
2024-02-26T10:20:19.599Z,97251.56
2024-02-26T10:21:23.898Z,97252.75
2024-02-26T10:22:28.972Z,97251.75
2024-02-26T10:23:31.560Z,97260.91
2024-02-26T10:24:35.701Z,97252.66
2024-02-26T10:25:38.704Z,97260.28
2024-02-26T10:26:48.123Z,97248.75
2024-02-26T10:27:51.192Z,97259.44
2024-02-26T10:28:55.668Z,97255.59
2024-02-26T10:29:58.838Z,97251.22
2024-02-26T10:31:01.832Z,97250.44
2024-02-26T10:32:05.195Z,97241.09
2024-02-26T10:33:08.992Z,97239.00
2024-02-26T10:34:12.406Z,97241.88
2024-02-26T10:35:16.904Z,97235.59
2024-02-26T10:36:19.558Z,97234.13
2024-02-26T10:37:25.897Z,97235.44
2024-02-26T10:38:31.285Z,97220.25
2024-02-26T10:39:34.248Z,97229.09
2024-02-26T10:40:36.906Z,97227.25
2024-02-26T10:41:39.870Z,97230.53
2024-02-26T10:42:44.149Z,97222.41
2024-02-26T10:43:48.575Z,97218.75
2024-02-26T10:44:51.269Z,97223.03
2024-02-26T10:45:56.326Z,97213.50
2024-02-26T10:46:58.949Z,97221.13
2024-02-26T10:48:02.240Z,97220.56
2024-02-26T10:49:07.650Z,97219.19
2024-02-26T10:50:11.308Z,97219.28
2024-02-26T10:51:15.625Z,97216.06
2024-02-26T10:52:20.952Z,97210.38
2024-02-26T10:53:25.618Z,97210.84
2024-02-26T10:54:30.975Z,97204.03
2024-02-26T10:55:36.729Z,97207.84
2024-02-26T10:56:44.573Z,97202.38
2024-02-26T10:57:48.885Z,97208.47
2024-02-26T10:58:51.968Z,97207.31
2024-02-26T10:59:56.308Z,97202.69
2024-02-26T11:01:00.288Z,97201.13
2024-02-26T11:02:04.261Z,97195.25
2024-02-26T11:03:08.533Z,97196.00
2024-02-26T13:47:33.224Z,97134.75
2024-02-26T13:48:37.083Z,97121.19
2024-02-26T13:49:39.890Z,97118.38
2024-02-26T13:50:47.292Z,97118.06
2024-02-26T13:51:50.392Z,97104.22
2024-02-26T13:52:55.169Z,97110.34
2024-02-26T13:53:57.891Z,97118.59
2024-02-26T13:55:00.787Z,97121.75
2024-02-26T13:56:06.640Z,97115.47
2024-02-26T13:57:10.705Z,97124.84
2024-02-26T13:58:15.531Z,97121.09
2024-02-26T13:59:18.236Z,97124.06
2024-02-26T14:00:21.284Z,97118.13
2024-02-26T14:01:23.947Z,97127.28
2024-02-26T14:02:27.002Z,97123.47
2024-02-26T14:03:29.725Z,97122.50
2024-02-26T14:04:32.564Z,97120.88
2024-02-26T14:05:35.335Z,97126.06
2024-02-26T14:06:38.486Z,97124.41
2024-02-26T14:07:42.140Z,97131.91
2024-02-26T14:08:44.889Z,97127.28
2024-02-26T14:09:50.450Z,97131.38
2024-02-26T14:10:53.525Z,97126.75
2024-02-26T14:11:56.175Z,97129.94
2024-02-26T14:13:02.741Z,97119.94
2024-02-26T14:14:05.704Z,97127.09
2024-02-26T14:15:12.121Z,97117.34
2024-02-26T14:16:15.625Z,97125.69
2024-02-26T14:17:18.297Z,97109.47
2024-02-26T14:18:21.032Z,97119.38
2024-02-26T14:19:24.997Z,97121.50
2024-02-26T14:20:27.920Z,97116.38
2024-02-26T14:21:30.921Z,97115.53
2024-02-26T14:22:33.540Z,97119.16
2024-02-26T14:23:36.946Z,97125.31
2024-02-26T14:24:40.903Z,97121.81
2024-02-26T14:25:43.582Z,97129.56
2024-02-26T14:26:47.132Z,97117.09
2024-02-26T14:27:50.400Z,97123.47
2024-02-26T14:28:53.124Z,97122.94
2024-02-26T14:29:56.568Z,97127.53
2024-02-26T14:30:59.225Z,97129.94
2024-02-26T14:32:01.820Z,97131.91
2024-02-26T14:33:04.843Z,97134.16
2024-02-26T14:34:08.708Z,97133.84
2024-02-26T14:35:16.269Z,97129.88
2024-02-26T14:36:22.064Z,97141.94
2024-02-26T14:37:24.640Z,97133.44
2024-02-26T14:38:27.303Z,97121.19
2024-02-26T14:39:30.514Z,97139.16
2024-02-26T14:40:33.518Z,97124.91
2024-02-26T14:41:36.014Z,97131.91
2024-02-26T14:42:38.908Z,97129.97
2024-02-26T14:43:43.445Z,97130.09
2024-02-26T14:44:48.947Z,97129.81
2024-02-26T14:45:51.676Z,97130.72
2024-02-26T14:46:54.534Z,97133.59
2024-02-26T14:47:57.284Z,97128.94
2024-02-26T14:48:59.951Z,97134.97
2024-02-26T14:50:03.443Z,97131.69
2024-02-26T14:51:07.488Z,97137.84
2024-02-26T14:52:10.508Z,97133.44
2024-02-26T14:53:13.014Z,97142.03
2024-02-26T14:54:16.168Z,97146.84
2024-02-26T14:55:19.050Z,97138.38
2024-02-26T14:56:21.750Z,97137.63
2024-02-26T14:57:26.080Z,97135.25
2024-02-26T14:58:28.804Z,97141.28
2024-02-26T14:59:32.453Z,97147.31
2024-02-26T15:00:36.189Z,97139.91
2024-02-26T15:01:39.186Z,97133.97
2024-02-26T15:02:41.808Z,97141.19
2024-02-26T15:03:45.035Z,97138.41
2024-02-26T15:04:48.406Z,97140.00
2024-02-26T15:05:51.123Z,97143.88
2024-02-26T15:06:53.907Z,97146.34
2024-02-26T15:07:56.628Z,97143.28
2024-02-26T15:08:59.399Z,97147.81
2024-02-26T15:10:02.214Z,97138.88
2024-02-26T15:11:04.992Z,97136.00
2024-02-26T15:12:08.414Z,97143.47
2024-02-26T15:13:11.038Z,97135.72
2024-02-26T15:14:13.615Z,97148.28
2024-02-26T15:15:16.645Z,97138.34
2024-02-26T15:16:21.852Z,97142.50